Time;durP1;ratioP1;P1;durP2;ratioP2;P2;SDS_P1;SDS_P2;PMS_P1;PMS_P2;Temp;Humidity;BMP_temperature;BMP_pressure;BME280_temperature;BME280_humidity;BME280_pressure;Samples;Min_cycle;Max_cycle;Signal;HPM_P1;HPM_P2
2021/12/11 00:01:04;;;;;;;6.38;5.70;;;-3.20;99.90;;;;;;5065433;28;20124;-74
2021/12/11 00:03:39;;;;;;;7.35;4.22;;;-3.20;99.90;;;;;;5088293;28;20542;-74
2021/12/11 00:06:15;;;;;;;9.82;6.38;;;-3.20;99.90;;;;;;5083647;28;20048;-74
2021/12/11 00:08:43;;;;;;;7.05;3.70;;;-3.30;99.90;;;;;;5080806;28;20495;-74
2021/12/11 00:11:31;;;;;;;8.48;6.47;;;-3.30;99.90;;;;;;5078191;28;20822;-74
2021/12/11 00:14:01;;;;;;;6.90;5.00;;;-3.40;99.90;;;;;;5079218;28;20051;-74
2021/12/11 00:16:29;;;;;;;12.32;5.40;;;-3.40;99.90;;;;;;5084306;28;20055;-74
2021/12/11 00:19:02;;;;;;;4.22;3.50;;;-3.40;99.90;;;;;;5074786;28;20478;-74
2021/12/11 00:21:29;;;;;;;5.82;3.80;;;-3.40;99.90;;;;;;5082607;28;20473;-74
2021/12/11 00:24:01;;;;;;;14.90;8.43;;;-3.50;99.90;;;;;;5072129;28;20048;-74
2021/12/11 00:26:36;;;;;;;6.32;5.43;;;-3.50;99.90;;;;;;5080110;28;20477;-74
2021/12/11 00:29:04;;;;;;;7.03;3.47;;;-3.40;99.90;;;;;;5078316;28;20107;-74
2021/12/11 00:31:32;;;;;;;6.03;5.55;;;-3.30;99.90;;;;;;5068329;28;20055;-74
2021/12/11 00:33:59;;;;;;;10.40;5.75;;;-3.20;99.90;;;;;;5085217;28;20048;-74
2021/12/11 00:36:32;;;;;;;5.47;3.13;;;-3.10;99.90;;;;;;5053526;28;20044;-74
2021/12/11 00:39:07;;;;;;;5.95;5.43;;;-3.10;99.90;;;;;;5078622;28;20442;-75
2021/12/11 00:41:34;;;;;;;4.50;3.77;;;-3.20;99.90;;;;;;5073083;28;20494;-74
2021/12/11 00:44:01;;;;;;;4.85;3.70;;;-3.30;99.90;;;;;;5078356;28;20044;-74
2021/12/11 00:46:28;;;;;;;4.57;3.50;;;-3.30;99.90;;;;;;5087616;28;20397;-74
2021/12/11 00:49:05;;;;;;;3.58;3.15;;;-3.40;99.90;;;;;;5086115;28;20028;-74
2021/12/11 00:51:31;;;;;;;13.90;5.32;;;-3.50;99.90;;;;;;5074445;28;20051;-75
2021/12/11 00:53:58;;;;;;;;;;;-3.50;99.90;;;;;;5088327;28;20032;-74
2021/12/11 00:56:27;;;;;;;2.95;2.75;;;-3.50;99.90;;;;;;5090611;28;19923;-74
2021/12/11 00:58:56;;;;;;;3.92;3.42;;;-3.50;99.90;;;;;;5075226;28;20114;-74
2021/12/11 01:01:48;;;;;;;5.00;4.63;;;-3.60;99.90;;;;;;5080853;28;20040;-74
2021/12/11 01:04:17;;;;;;;3.47;3.05;;;-3.50;99.90;;;;;;5059317;28;20058;-75
2021/12/11 01:06:54;;;;;;;5.68;4.25;;;-3.50;99.90;;;;;;5067729;28;20032;-74
2021/12/11 01:09:22;;;;;;;3.90;3.50;;;-3.40;99.90;;;;;;5087952;28;20446;-75
2021/12/11 01:12:02;;;;;;;9.60;4.50;;;-3.20;99.90;;;;;;5084919;28;20032;-74
2021/12/11 01:14:37;;;;;;;5.90;3.15;;;-3.30;99.90;;;;;;5085332;28;20075;-75
2021/12/11 01:17:19;;;;;;;5.30;3.95;;;-3.30;99.90;;;;;;5069578;28;20501;-75
2021/12/11 01:19:47;;;;;;;9.10;6.32;;;-3.30;99.90;;;;;;5088726;28;20044;-75
2021/12/11 01:22:33;;;;;;;11.05;4.63;;;-3.40;99.90;;;;;;5086322;28;20047;-75
2021/12/11 01:25:21;;;;;;;3.22;2.92;;;-3.40;99.90;;;;;;5087676;28;20054;-75
2021/12/11 01:27:52;;;;;;;5.93;2.90;;;-3.50;99.90;;;;;;5086114;28;20488;-75
2021/12/11 01:30:25;;;;;;;5.18;4.68;;;-3.50;99.90;;;;;;5068302;28;20052;-76
2021/12/11 01:32:51;;;;;;;4.95;4.53;;;-3.60;99.90;;;;;;5079876;28;20021;-75
2021/12/11 01:35:17;;;;;;;;;;;-3.60;99.90;;;;;;5056341;28;20109;-75
2021/12/11 01:37:46;;;;;;;7.60;5.85;;;-3.60;99.90;;;;;;5088453;28;19963;-73
2021/12/11 01:40:15;;;;;;;6.43;4.35;;;-3.50;99.90;;;;;;5074846;28;20760;-73
2021/12/11 01:42:42;;;;;;;5.20;4.72;;;-3.40;99.90;;;;;;5081430;28;20097;-73
2021/12/11 01:45:11;;;;;;;9.15;4.30;;;-3.30;99.90;;;;;;5083080;28;20044;-74
2021/12/11 01:47:39;;;;;;;9.63;4.85;;;-3.30;99.90;;;;;;5071479;28;20058;-73
2021/12/11 01:50:19;;;;;;;3.63;3.33;;;-3.30;99.90;;;;;;5084395;28;20409;-73
2021/12/11 01:52:59;;;;;;;7.30;4.32;;;-3.20;99.90;;;;;;5077491;28;20103;-74
2021/12/11 01:55:47;;;;;;;2.65;2.45;;;-3.20;99.90;;;;;;5072338;28;20192;-73
2021/12/11 01:58:20;;;;;;;4.38;4.07;;;-3.20;99.90;;;;;;5084815;28;20058;-74
2021/12/11 02:00:52;;;;;;;4.13;3.72;;;-3.20;99.90;;;;;;5079827;28;20387;-74
2021/12/11 02:03:27;;;;;;;10.55;3.00;;;-3.20;99.90;;;;;;5065736;28;20044;-75
2021/12/11 02:05:53;;;;;;;2.92;2.35;;;-3.30;99.90;;;;;;5085544;28;20039;-74
2021/12/11 02:08:27;;;;;;;;;;;-3.30;99.90;;;;;;5099705;28;20446;-75
2021/12/11 02:11:04;;;;;;;8.55;5.50;;;-3.20;99.90;;;;;;5063691;28;19928;-74
2021/12/11 02:13:49;;;;;;;3.20;2.67;;;-3.20;99.90;;;;;;5086492;28;20416;-75
2021/12/11 02:16:23;;;;;;;6.03;4.80;;;-3.10;99.90;;;;;;5079320;28;20485;-75
2021/12/11 02:18:56;;;;;;;4.53;3.90;;;-3.00;99.90;;;;;;5068959;28;20064;-75
2021/12/11 02:21:34;;;;;;;6.80;4.78;;;-2.90;99.90;;;;;;5070899;28;20051;-75
2021/12/11 02:24:10;;;;;;;4.20;3.85;;;-2.90;99.90;;;;;;5081538;28;20431;-75
2021/12/11 02:26:39;;;;;;;3.13;2.92;;;-3.00;99.90;;;;;;5091777;28;20085;-75
2021/12/11 02:29:17;;;;;;;6.03;3.58;;;-3.20;99.90;;;;;;5090110;28;20051;-75
2021/12/11 02:32:01;;;;;;;5.68;5.03;;;-3.20;99.90;;;;;;5075670;28;20489;-76
2021/12/11 02:34:39;;;;;;;6.88;3.92;;;-3.30;99.90;;;;;;5087765;28;20123;-75
2021/12/11 02:37:17;;;;;;;4.85;4.43;;;-3.30;99.90;;;;;;5076845;28;20047;-75
2021/12/11 02:39:54;;;;;;;8.05;4.30;;;-3.30;99.90;;;;;;5077582;28;20097;-75
2021/12/11 02:42:31;;;;;;;7.80;4.80;;;-3.20;99.90;;;;;;5085620;28;20135;-75
2021/12/11 02:44:57;;;;;;;5.20;4.32;;;-3.10;99.90;;;;;;5084833;28;20063;-75
2021/12/11 02:47:30;;;;;;;2.90;2.67;;;-3.00;99.90;;;;;;5064925;28;20049;-76
2021/12/11 02:50:29;;;;;;;4.45;4.03;;;-2.80;99.90;;;;;;5077279;28;20465;-75
2021/12/11 02:53:20;;;;;;;6.70;4.03;;;-2.70;99.90;;;;;;5056210;28;20470;-75
2021/12/11 02:56:08;;;;;;;5.45;4.22;;;-2.60;99.90;;;;;;5082612;28;20075;-75
2021/12/11 02:58:37;;;;;;;11.00;5.57;;;-2.60;99.90;;;;;;5073829;28;20032;-75
2021/12/11 03:01:25;;;;;;;7.22;5.50;;;-2.60;99.90;;;;;;5090725;28;20040;-75
2021/12/11 03:04:01;;;;;;;7.32;3.83;;;-2.40;99.90;;;;;;5074878;28;20098;-75
2021/12/11 03:06:35;;;;;;;3.08;2.80;;;-2.40;99.90;;;;;;5085892;28;20032;-75
2021/12/11 03:09:01;;;;;;;3.92;3.50;;;-2.40;99.90;;;;;;5059866;28;20126;-75
2021/12/11 03:11:31;;;;;;;8.25;4.45;;;-2.20;99.90;;;;;;5072275;28;20044;-75
2021/12/11 03:13:58;;;;;;;3.17;2.88;;;-2.40;99.90;;;;;;5083954;28;20040;-75
2021/12/11 03:16:27;;;;;;;8.70;4.70;;;-2.40;99.90;;;;;;5061968;28;20474;-75
2021/12/11 03:18:55;;;;;;;5.38;3.03;;;-2.50;99.90;;;;;;5082877;28;20052;-75
2021/12/11 03:21:21;;;;;;;4.03;2.63;;;-2.40;99.90;;;;;;5068283;28;20115;-75
2021/12/11 03:23:47;;;;;;;3.92;3.30;;;-2.30;99.90;;;;;;5060878;28;20119;-76
2021/12/11 03:26:13;;;;;;;11.73;4.30;;;-2.30;99.90;;;;;;5081460;28;20040;-75
2021/12/11 03:28:39;;;;;;;4.18;3.03;;;-2.40;99.90;;;;;;5071899;28;21764;-73
2021/12/11 03:31:07;;;;;;;4.63;3.58;;;-2.50;99.90;;;;;;5072619;28;20055;-75
2021/12/11 03:33:38;;;;;;;5.13;3.88;;;-2.50;99.90;;;;;;5084096;28;20041;-74
2021/12/11 03:36:07;;;;;;;12.43;6.30;;;-2.60;99.90;;;;;;5079564;28;20040;-75
2021/12/11 03:38:33;;;;;;;6.18;3.42;;;-2.60;99.90;;;;;;5094458;28;20044;-74
2021/12/11 03:40:59;;;;;;;5.82;3.13;;;-2.70;99.90;;;;;;5081548;28;20113;-75
2021/12/11 03:43:28;;;;;;;5.78;5.28;;;-2.70;99.90;;;;;;5074032;28;20478;-75
2021/12/11 03:45:56;;;;;;;8.25;4.22;;;-2.80;99.90;;;;;;5083337;28;20043;-75
2021/12/11 03:48:32;;;;;;;4.18;3.78;;;-2.80;99.90;;;;;;5082225;28;20409;-76
2021/12/11 03:50:59;;;;;;;8.27;3.50;;;-2.70;99.90;;;;;;5086550;28;20051;-75
2021/12/11 03:53:25;;;;;;;3.88;2.63;;;-2.50;99.90;;;;;;5066965;28;20075;-75
2021/12/11 03:55:55;;;;;;;6.25;5.20;;;-2.30;99.90;;;;;;5058782;28;20074;-75
2021/12/11 03:58:22;;;;;;;9.32;4.03;;;-2.10;99.90;;;;;;5064644;28;20488;-75
2021/12/11 04:00:54;;;;;;;3.15;2.95;;;-2.00;99.90;;;;;;5067896;28;21567;-75
2021/12/11 04:03:24;;;;;;;16.58;8.52;;;-2.00;99.90;;;;;;5088472;28;20045;-75
2021/12/11 04:05:50;;;;;;;11.98;6.22;;;-1.90;99.90;;;;;;5079726;28;20387;-76
2021/12/11 04:08:25;;;;;;;4.55;4.13;;;-1.70;99.90;;;;;;5058985;28;20032;-76
2021/12/11 04:10:51;;;;;;;4.55;4.15;;;-1.70;99.90;;;;;;5076549;28;20044;-76
2021/12/11 04:13:18;;;;;;;7.07;3.92;;;-1.70;99.90;;;;;;5081531;28;20042;-75
2021/12/11 04:15:47;;;;;;;7.10;5.00;;;-1.80;99.90;;;;;;5062006;28;20036;-75
2021/12/11 04:18:13;;;;;;;5.68;4.00;;;-1.90;99.90;;;;;;5077451;28;20107;-75
2021/12/11 04:20:40;;;;;;;3.47;3.17;;;-1.90;99.90;;;;;;5057174;28;20055;-75
2021/12/11 04:23:07;;;;;;;7.15;3.05;;;-2.00;99.90;;;;;;5086934;28;20075;-75
2021/12/11 04:25:34;;;;;;;4.78;4.32;;;-2.20;99.90;;;;;;5070712;28;20551;-75
2021/12/11 04:28:01;;;;;;;3.72;3.40;;;-2.20;99.90;;;;;;5074283;28;20040;-75
2021/12/11 04:30:28;;;;;;;12.45;5.10;;;-2.30;99.90;;;;;;5058840;28;20040;-76
2021/12/11 04:32:59;;;;;;;4.38;3.97;;;-2.50;99.90;;;;;;5046835;28;20051;-76
2021/12/11 04:35:29;;;;;;;3.97;3.53;;;-2.50;99.90;;;;;;5084206;28;20052;-75
2021/12/11 04:37:57;;;;;;;3.55;3.25;;;-2.60;99.90;;;;;;5074969;28;20047;-75
2021/12/11 04:40:32;;;;;;;5.55;4.15;;;-2.70;99.90;;;;;;5063710;28;20046;-75
2021/12/11 04:43:07;;;;;;;6.40;3.20;;;-2.80;99.90;;;;;;5088765;28;20413;-75
2021/12/11 04:45:41;;;;;;;5.78;4.00;;;-2.90;99.90;;;;;;5057253;28;20037;-75
2021/12/11 04:48:23;;;;;;;4.18;3.65;;;-3.00;99.90;;;;;;5082443;28;20040;-75
2021/12/11 04:51:05;;;;;;;4.80;3.45;;;-3.10;99.90;;;;;;5084134;28;20044;-76
2021/12/11 05:11:46;;;;;;;4.38;3.97;;;-3.30;99.90;;;;;;5086749;28;20101;-74
2021/12/11 05:14:14;;;;;;;2.97;2.75;;;-3.30;99.90;;;;;;5078438;28;20044;-75
2021/12/11 05:16:41;;;;;;;4.57;3.08;;;-3.30;99.90;;;;;;5087890;28;20040;-75
2021/12/11 05:19:08;;;;;;;2.88;2.58;;;-3.40;99.90;;;;;;5080004;28;20092;-74
2021/12/11 05:21:35;;;;;;;8.02;5.30;;;-3.30;99.90;;;;;;5062362;28;20036;-75
2021/12/11 05:24:04;;;;;;;3.33;2.50;;;-3.30;99.90;;;;;;5080827;28;20056;-74
2021/12/11 05:26:30;;;;;;;6.72;5.57;;;-3.30;99.90;;;;;;5086379;28;20048;-74
2021/12/11 05:28:55;;;;;;;5.88;3.92;;;-3.20;99.90;;;;;;5089766;28;20127;-74
2021/12/11 05:31:22;;;;;;;10.38;3.53;;;-3.10;99.90;;;;;;5078034;28;20119;-75
2021/12/11 05:33:48;;;;;;;3.83;3.53;;;-3.00;99.90;;;;;;5071698;28;20040;-75
2021/12/11 05:36:16;;;;;;;5.82;3.90;;;-2.90;99.90;;;;;;5066758;28;20048;-74
2021/12/11 05:38:43;;;;;;;4.55;3.75;;;-2.90;99.90;;;;;;5081855;28;20054;-74
2021/12/11 05:41:12;;;;;;;2.15;1.98;;;-2.90;99.90;;;;;;5087127;28;20440;-74
2021/12/11 05:43:38;;;;;;;7.00;5.88;;;-2.90;99.90;;;;;;5083677;28;20041;-75
2021/12/11 05:46:06;;;;;;;9.05;4.78;;;-2.90;99.90;;;;;;5089266;28;20032;-75
2021/12/11 05:48:32;;;;;;;10.50;5.60;;;-2.90;99.90;;;;;;5084315;28;20382;-75
2021/12/11 05:51:01;;;;;;;10.20;5.95;;;-2.80;99.90;;;;;;5077932;28;20044;-75
2021/12/11 05:53:30;;;;;;;11.55;7.93;;;-2.60;99.90;;;;;;5077502;28;20327;-75
2021/12/11 05:55:57;;;;;;;4.90;4.03;;;-2.50;99.90;;;;;;5059011;28;20044;-74
2021/12/11 05:59:06;;;;;;;3.38;2.83;;;-2.30;99.90;;;;;;5082329;28;20192;-75
2021/12/11 06:01:19;;;;;;;8.65;4.80;;;-2.20;99.90;;;;;;5083815;28;20048;-75
2021/12/11 06:03:46;;;;;;;2.45;2.25;;;-2.10;99.90;;;;;;5087978;28;20047;-76
2021/12/11 06:06:12;;;;;;;5.32;4.63;;;-2.10;99.90;;;;;;5091205;28;20119;-75
2021/12/11 06:08:38;;;;;;;;;;;-2.20;99.90;;;;;;5085069;28;20128;-76
2021/12/11 06:11:06;;;;;;;4.20;3.80;;;-2.20;99.90;;;;;;5087870;28;19920;-76
2021/12/11 06:13:31;;;;;;;13.45;4.25;;;-2.30;99.90;;;;;;5079351;28;20056;-75
2021/12/11 06:15:59;;;;;;;4.72;4.25;;;-2.40;99.90;;;;;;5074685;28;20102;-75
2021/12/11 06:18:25;;;;;;;8.10;4.85;;;-2.40;99.90;;;;;;5077942;28;20043;-74
2021/12/11 06:20:51;;;;;;;7.60;4.82;;;-2.50;99.90;;;;;;5083876;28;20485;-75
2021/12/11 06:23:18;;;;;;;3.33;3.05;;;-2.60;99.90;;;;;;5076500;28;20088;-76
2021/12/11 06:25:45;;;;;;;6.18;3.13;;;-2.60;99.90;;;;;;5077345;28;20055;-75
2021/12/11 06:28:11;;;;;;;6.55;5.95;;;-2.50;99.90;;;;;;5074895;28;20056;-76
2021/12/11 06:30:38;;;;;;;7.25;4.88;;;-2.50;99.90;;;;;;5091901;28;20043;-75
2021/12/11 06:33:05;;;;;;;4.38;4.00;;;-2.40;99.90;;;;;;5075766;28;20532;-75
2021/12/11 06:35:39;;;;;;;8.70;5.32;;;-2.40;99.90;;;;;;5087423;28;20044;-75
2021/12/11 06:38:10;;;;;;;11.07;3.95;;;-2.40;99.90;;;;;;5093795;28;20161;-75
2021/12/11 06:40:37;;;;;;;7.30;5.95;;;-2.40;99.90;;;;;;5081898;28;20032;-74
2021/12/11 06:43:04;;;;;;;4.65;3.42;;;-2.40;99.90;;;;;;5091783;28;20544;-76
2021/12/11 06:45:30;;;;;;;10.38;4.00;;;-2.40;99.90;;;;;;5088966;28;20032;-75
2021/12/11 06:47:56;;;;;;;4.88;3.95;;;-2.40;99.90;;;;;;5082874;28;20477;-75
2021/12/11 06:50:24;;;;;;;6.85;4.60;;;-2.40;99.90;;;;;;5074033;28;20054;-74
2021/12/11 06:52:51;;;;;;;6.10;4.88;;;-2.40;99.90;;;;;;5073797;28;20059;-75
2021/12/11 06:55:17;;;;;;;6.03;4.95;;;-2.30;99.90;;;;;;5092307;28;20058;-77
2021/12/11 06:57:44;;;;;;;4.97;4.32;;;-2.30;99.90;;;;;;5083626;28;20397;-75
2021/12/11 07:00:11;;;;;;;6.32;4.63;;;-2.20;99.90;;;;;;5063020;28;20048;-75
2021/12/11 07:02:36;;;;;;;7.90;6.32;;;-2.10;99.90;;;;;;5069128;28;20052;-76
2021/12/11 07:05:04;;;;;;;11.93;5.07;;;-2.00;99.90;;;;;;5067354;28;20066;-76
2021/12/11 07:07:33;;;;;;;8.73;5.45;;;-1.90;99.90;;;;;;5084307;28;20493;-76
2021/12/11 07:10:01;;;;;;;5.30;4.80;;;-1.90;99.90;;;;;;5075186;28;20071;-75
2021/12/11 07:12:27;;;;;;;3.05;2.85;;;-1.90;99.90;;;;;;5085617;28;20032;-76
2021/12/11 07:14:53;;;;;;;3.10;2.88;;;-1.80;99.90;;;;;;5076245;28;20128;-75
2021/12/11 07:17:20;;;;;;;4.72;4.32;;;-1.80;99.90;;;;;;5078637;28;20123;-75
2021/12/11 07:19:46;;;;;;;4.70;4.30;;;-1.80;99.90;;;;;;5092683;28;20089;-76
2021/12/11 07:22:13;;;;;;;7.72;3.70;;;-1.80;99.90;;;;;;5083966;28;20474;-76
2021/12/11 07:24:47;;;;;;;11.73;5.50;;;-1.80;99.90;;;;;;5080323;28;20048;-76
2021/12/11 07:27:13;;;;;;;12.55;4.30;;;-1.80;99.90;;;;;;5080251;28;20437;-76
2021/12/11 07:29:40;;;;;;;4.78;3.90;;;-1.90;99.90;;;;;;5089001;28;20079;-77
2021/12/11 07:32:07;;;;;;;4.90;4.35;;;-1.80;99.90;;;;;;5073032;28;20398;-76
2021/12/11 07:34:33;;;;;;;7.53;4.53;;;-1.80;99.90;;;;;;5081102;28;20421;-76
2021/12/11 07:37:00;;;;;;;13.25;4.75;;;-1.80;99.90;;;;;;5072609;28;20048;-76
2021/12/11 07:39:25;;;;;;;5.95;5.03;;;-1.80;99.90;;;;;;5071075;28;20040;-76
2021/12/11 07:41:53;;;;;;;6.00;4.32;;;-1.70;99.90;;;;;;5085354;28;20375;-77
2021/12/11 07:44:20;;;;;;;16.90;5.25;;;-1.80;99.90;;;;;;5069228;28;20052;-75
2021/12/11 07:46:46;;;;;;;4.97;2.83;;;-0.30;99.90;;;;;;5071119;28;20075;-76
2021/12/11 07:49:12;;;;;;;4.15;3.75;;;-1.80;99.90;;;;;;5073077;28;20072;-76
2021/12/11 07:51:39;;;;;;;7.85;7.13;;;-1.80;99.90;;;;;;5071550;28;20037;-76
2021/12/11 07:54:06;;;;;;;8.38;6.68;;;-1.80;99.90;;;;;;5085836;28;20036;-77
2021/12/11 07:56:33;;;;;;;14.18;5.45;;;-1.70;99.90;;;;;;5085878;28;20127;-75
2021/12/11 07:59:03;;;;;;;7.35;4.97;;;-1.70;99.90;;;;;;5084281;28;20173;-75
2021/12/11 08:01:32;;;;;;;12.30;5.93;;;-1.70;99.90;;;;;;5071161;28;20051;-75
2021/12/11 08:04:00;;;;;;;7.70;5.57;;;-1.70;99.90;;;;;;5086165;28;20115;-75
2021/12/11 08:06:27;;;;;;;7.63;5.72;;;-1.70;99.90;;;;;;5089358;28;20068;-76
2021/12/11 08:08:52;;;;;;;8.75;6.28;;;-1.70;99.90;;;;;;5078578;28;20045;-75
2021/12/11 08:11:19;;;;;;;4.78;3.55;;;-1.70;99.90;;;;;;5088649;28;20043;-76
2021/12/11 08:13:49;;;;;;;8.25;5.32;;;-0.50;99.90;;;;;;5085056;28;20032;-75
2021/12/11 08:16:21;;;;;;;9.00;6.38;;;-1.60;99.90;;;;;;5089323;28;20051;-75
2021/12/11 08:18:47;;;;;;;10.07;6.93;;;-1.60;99.90;;;;;;5081600;28;20040;-75
2021/12/11 08:21:13;;;;;;;7.05;6.07;;;-1.50;99.90;;;;;;5078356;28;20042;-76
2021/12/11 08:23:44;;;;;;;5.63;5.03;;;-1.40;99.90;;;;;;5076750;28;20043;-75
2021/12/11 08:26:15;;;;;;;6.68;4.70;;;-1.30;99.90;;;;;;5077791;28;20119;-76
2021/12/11 08:28:42;;;;;;;9.68;7.43;;;-1.40;99.90;;;;;;5081794;28;20109;-74
2021/12/11 08:31:08;;;;;;;14.15;6.45;;;-1.30;99.90;;;;;;5056311;28;20375;-76
2021/12/11 08:33:33;;;;;;;;;;;-1.20;99.90;;;;;;5065900;28;20051;-75
2021/12/11 08:36:00;;;;;;;6.00;4.78;;;-1.10;99.90;;;;;;5085597;28;20290;-76
2021/12/11 08:38:27;;;;;;;11.05;6.35;;;-1.10;99.90;;;;;;5062097;28;20115;-74
2021/12/11 08:40:56;;;;;;;6.30;4.40;;;-1.10;99.90;;;;;;5085445;28;20041;-77
2021/12/11 08:43:23;;;;;;;7.95;5.32;;;-1.10;99.90;;;;;;5079104;28;20039;-76
2021/12/11 08:46:10;;;;;;;14.38;7.38;;;-1.10;99.90;;;;;;5087608;28;20051;-75
2021/12/11 08:48:39;;;;;;;7.07;6.47;;;-1.10;99.90;;;;;;5084209;28;20040;-76
2021/12/11 08:51:16;;;;;;;8.13;6.82;;;-1.00;99.90;;;;;;5070675;28;20040;-75
2021/12/11 08:53:42;;;;;;;8.95;7.20;;;-1.00;99.90;;;;;;5072021;28;20634;-76
2021/12/11 08:56:10;;;;;;;15.15;8.18;;;-0.90;99.90;;;;;;5062846;28;20469;-76
2021/12/11 08:58:38;;;;;;;7.47;6.07;;;-0.80;99.90;;;;;;5070083;28;20055;-77
2021/12/11 09:01:14;;;;;;;7.85;6.03;;;-0.80;99.90;;;;;;5076227;28;20056;-75
2021/12/11 09:03:59;;;;;;;5.22;4.80;;;-0.80;99.90;;;;;;5071448;28;20045;-76
2021/12/11 09:06:34;;;;;;;6.32;4.72;;;-0.80;99.90;;;;;;5068267;28;20039;-76
2021/12/11 09:09:18;;;;;;;8.00;4.60;;;-0.80;99.90;;;;;;5106111;28;20420;-76
2021/12/11 09:12:03;;;;;;;5.60;4.18;;;-0.80;99.90;;;;;;5088808;28;20489;-76
2021/12/11 09:14:54;;;;;;;10.05;6.53;;;-0.70;99.90;;;;;;5071178;28;20052;-78
2021/12/11 09:17:29;;;;;;;7.07;6.43;;;-0.70;99.90;;;;;;5085479;28;20044;-76
2021/12/11 09:20:21;;;;;;;11.50;6.32;;;-0.60;99.90;;;;;;5082986;28;20040;-77
2021/12/11 09:23:05;;;;;;;22.13;7.22;;;-0.60;99.90;;;;;;5081404;28;20112;-76
2021/12/11 09:25:46;;;;;;;9.95;5.43;;;-0.50;99.90;;;;;;5084936;28;20586;-77
2021/12/11 09:28:17;;;;;;;8.77;6.80;;;-0.40;99.90;;;;;;5090128;28;20102;-78
2021/12/11 09:30:55;;;;;;;5.97;5.35;;;-0.40;99.90;;;;;;5072149;28;20077;-76
2021/12/11 09:33:28;;;;;;;6.53;5.03;;;-0.30;99.90;;;;;;5066703;28;20115;-75
2021/12/11 09:36:05;;;;;;;6.57;4.75;;;-0.30;99.90;;;;;;5086763;28;20032;-78
2021/12/11 09:38:36;;;;;;;;;;;-0.20;99.90;;;;;;5081024;28;20037;-77
2021/12/11 09:41:17;;;;;;;7.85;5.07;;;-0.20;99.90;;;;;;5075651;28;19939;-76
2021/12/11 09:43:54;;;;;;;11.75;5.82;;;0.00;99.90;;;;;;5081672;28;20052;-76
2021/12/11 09:46:25;;;;;;;9.93;6.28;;;0.00;99.90;;;;;;5084560;28;20036;-77
2021/12/11 09:48:53;;;;;;;9.88;4.25;;;0.10;99.90;;;;;;5077369;28;20119;-78
2021/12/11 09:51:25;;;;;;;6.32;5.72;;;0.10;99.90;;;;;;5092587;28;20048;-77
2021/12/11 09:53:56;;;;;;;11.90;6.00;;;0.20;99.90;;;;;;5092380;28;20040;-76
2021/12/11 09:56:33;;;;;;;7.07;5.43;;;0.30;99.90;;;;;;5082782;28;20146;-76
2021/12/11 09:59:01;;;;;;;7.10;6.47;;;0.30;99.90;;;;;;5092954;28;20048;-77
2021/12/11 10:01:35;;;;;;;9.65;4.78;;;0.50;99.90;;;;;;5084274;28;20044;-76
2021/12/11 10:04:10;;;;;;;18.45;10.93;;;0.50;99.90;;;;;;5091141;28;20474;-75
2021/12/11 10:07:13;;;;;;;12.27;5.40;;;0.70;99.90;;;;;;5083369;28;20044;-76
2021/12/11 10:09:48;;;;;;;9.85;4.82;;;0.70;99.90;;;;;;5084530;28;20425;-75
2021/12/11 10:12:21;;;;;;;20.25;9.65;;;0.80;99.90;;;;;;5084063;28;20040;-75
2021/12/11 10:14:58;;;;;;;9.20;5.25;;;0.80;99.90;;;;;;5077467;28;20048;-76
2021/12/11 10:17:36;;;;;;;10.25;5.07;;;0.90;99.90;;;;;;5086367;28;20566;-73
2021/12/11 10:20:09;;;;;;;5.20;4.22;;;0.90;99.90;;;;;;5077968;28;20494;-75
2021/12/11 10:22:38;;;;;;;8.68;4.95;;;0.90;99.90;;;;;;5075132;28;20080;-76
2021/12/11 10:25:15;;;;;;;12.05;6.70;;;1.00;99.90;;;;;;5085470;28;20058;-76
2021/12/11 10:27:42;;;;;;;7.47;6.07;;;1.10;99.90;;;;;;5084098;28;20429;-78
2021/12/11 10:30:11;;;;;;;8.85;5.03;;;1.20;99.90;;;;;;5081041;28;20708;-77
2021/12/11 10:32:37;;;;;;;4.70;4.28;;;1.30;99.90;;;;;;5077814;28;20162;-76
2021/12/11 10:35:13;;;;;;;7.93;4.78;;;1.40;99.90;;;;;;5082332;28;20537;-76
2021/12/11 10:37:39;;;;;;;;;;;1.40;99.90;;;;;;5085099;28;20054;-77
2021/12/11 10:40:15;;;;;;;11.60;6.55;;;1.50;99.90;;;;;;5086034;28;20265;-77
2021/12/11 10:42:43;;;;;;;6.50;5.73;;;1.50;99.90;;;;;;5088293;28;20068;-76
2021/12/11 10:45:12;;;;;;;8.38;6.90;;;1.50;99.90;;;;;;5093221;28;20671;-77
2021/12/11 10:47:43;;;;;;;15.10;6.30;;;1.60;99.90;;;;;;5091490;28;20044;-76
2021/12/11 10:50:28;;;;;;;16.75;7.07;;;1.80;99.90;;;;;;5089996;28;20194;-75
2021/12/11 10:52:55;;;;;;;8.10;5.82;;;1.90;99.90;;;;;;5082190;28;20039;-77
2021/12/11 10:55:23;;;;;;;16.33;7.93;;;2.00;99.90;;;;;;5094738;28;20044;-76
2021/12/11 10:57:53;;;;;;;5.70;4.68;;;2.10;99.90;;;;;;5084434;28;20397;-77
2021/12/11 11:00:38;;;;;;;8.80;6.78;;;2.40;99.90;;;;;;5092739;28;20114;-79
2021/12/11 11:03:06;;;;;;;13.52;5.32;;;2.20;99.90;;;;;;5077656;28;20036;-78
2021/12/11 11:05:33;;;;;;;7.18;5.03;;;2.30;99.90;;;;;;5064223;28;20051;-80
2021/12/11 11:07:59;;;;;;;12.95;8.70;;;2.40;99.90;;;;;;5083146;28;20572;-76
2021/12/11 11:10:31;;;;;;;8.35;6.47;;;2.90;99.90;;;;;;5072638;28;20046;-77
2021/12/11 11:13:00;;;;;;;11.95;6.47;;;2.70;99.90;;;;;;5077549;28;20040;-76
2021/12/11 11:15:27;;;;;;;12.52;7.18;;;2.70;99.90;;;;;;5067057;28;20122;-77
2021/12/11 11:17:54;;;;;;;8.65;6.30;;;2.80;99.90;;;;;;5078889;28;20051;-79
2021/12/11 11:20:32;;;;;;;7.60;3.65;;;3.10;99.90;;;;;;5071528;28;20036;-77
2021/12/11 11:22:59;;;;;;;14.60;6.05;;;3.20;99.90;;;;;;5080358;28;20223;-80
2021/12/11 11:25:29;;;;;;;12.18;6.57;;;3.00;99.90;;;;;;5072720;28;20039;-79
2021/12/11 11:28:03;;;;;;;9.90;6.50;;;3.00;99.90;;;;;;5084496;28;20553;-78
2021/12/11 11:30:34;;;;;;;16.35;6.72;;;3.20;99.90;;;;;;5088953;28;20052;-79
2021/12/11 11:33:02;;;;;;;12.55;8.57;;;3.10;99.90;;;;;;5093044;28;20040;-77
2021/12/11 11:35:30;;;;;;;7.25;4.15;;;3.30;99.90;;;;;;5088916;28;20055;-77
2021/12/11 11:37:59;;;;;;;10.25;5.47;;;3.10;99.90;;;;;;5073176;28;20081;-76
2021/12/11 11:40:32;;;;;;;8.50;4.22;;;3.00;99.90;;;;;;5079670;28;20056;-80
2021/12/11 11:42:58;;;;;;;10.57;7.32;;;3.00;99.90;;;;;;5076831;28;20071;-78
2021/12/11 11:45:26;;;;;;;12.77;6.93;;;3.20;99.90;;;;;;5079525;28;20047;-78
2021/12/11 11:47:54;;;;;;;10.02;6.20;;;3.20;99.90;;;;;;5082162;28;20064;-77
2021/12/11 11:50:24;;;;;;;6.57;5.10;;;3.30;99.90;;;;;;5087549;28;20078;-77
2021/12/11 11:52:50;;;;;;;6.60;5.05;;;3.20;99.90;;;;;;5067054;28;20454;-80
2021/12/11 11:55:24;;;;;;;6.93;4.95;;;3.20;99.90;;;;;;5085748;28;20032;-79
2021/12/11 11:57:52;;;;;;;12.00;5.00;;;3.10;99.90;;;;;;5091035;28;20048;-79
2021/12/11 12:00:27;;;;;;;7.78;5.88;;;3.00;99.90;;;;;;5064256;28;20493;-78
2021/12/11 12:02:53;;;;;;;7.40;5.35;;;3.10;99.90;;;;;;5082934;28;20462;-77
2021/12/11 12:05:19;;;;;;;;;;;3.20;99.90;;;;;;5066259;28;20438;-78
2021/12/11 12:07:46;;;;;;;10.50;5.15;;;3.30;99.90;;;;;;5077233;28;19919;-79
2021/12/11 12:10:25;;;;;;;13.38;6.05;;;3.30;99.90;;;;;;5057577;28;20055;-81
2021/12/11 12:12:51;;;;;;;11.57;6.55;;;3.30;99.90;;;;;;5069650;28;20037;-79
2021/12/11 12:15:22;;;;;;;9.10;5.50;;;3.30;99.90;;;;;;5076808;28;20058;-79
2021/12/11 12:17:48;;;;;;;8.57;6.30;;;3.50;99.90;;;;;;5092472;28;20048;-79
2021/12/11 12:20:17;;;;;;;9.18;6.07;;;3.40;99.90;;;;;;5076389;28;20370;-79
2021/12/11 12:22:46;;;;;;;10.75;6.50;;;3.50;99.90;;;;;;5079708;28;20055;-80
2021/12/11 12:25:12;;;;;;;10.05;6.38;;;3.60;99.90;;;;;;5073048;28;20465;-81
2021/12/11 12:27:42;;;;;;;9.02;4.82;;;3.60;99.90;;;;;;5076383;28;20071;-79
2021/12/11 12:30:22;;;;;;;7.00;5.07;;;3.80;99.90;;;;;;5078839;28;20098;-80
2021/12/11 12:32:51;;;;;;;11.85;4.75;;;3.70;99.90;;;;;;5084223;28;21458;-80
2021/12/11 12:35:18;;;;;;;8.55;5.15;;;3.70;99.90;;;;;;5071305;28;20758;-80
2021/12/11 12:37:46;;;;;;;16.23;7.68;;;4.60;99.90;;;;;;5071889;28;20047;-80
2021/12/11 12:40:31;;;;;;;14.18;5.82;;;3.60;99.90;;;;;;5057330;28;20122;-80
2021/12/11 12:43:09;;;;;;;8.75;4.97;;;3.50;99.90;;;;;;5074073;28;20049;-81
2021/12/11 12:45:50;;;;;;;7.13;4.80;;;3.40;99.90;;;;;;5070699;28;20151;-82
2021/12/11 12:48:20;;;;;;;10.55;5.78;;;3.00;99.90;;;;;;5061686;28;20490;-79
2021/12/11 12:50:58;;;;;;;4.97;3.88;;;3.50;99.90;;;;;;5079480;28;20047;-83
2021/12/11 12:53:33;;;;;;;7.43;5.40;;;5.10;99.90;;;;;;5091963;28;20044;-83
2021/12/11 12:56:06;;;;;;;7.65;4.95;;;2.80;99.90;;;;;;5069476;28;20902;-81
2021/12/11 12:58:45;;;;;;;6.95;5.10;;;3.20;99.90;;;;;;5073204;28;20074;-80
2021/12/11 13:01:15;;;;;;;9.25;5.43;;;3.20;99.90;;;;;;5069285;28;20739;-81
2021/12/11 13:03:43;;;;;;;5.45;4.05;;;3.40;99.90;;;;;;5066869;28;20127;-81
2021/12/11 13:06:16;;;;;;;10.95;8.13;;;4.30;99.90;;;;;;5084721;28;20047;-81
2021/12/11 13:08:49;;;;;;;8.25;7.03;;;3.10;99.90;;;;;;5078009;28;20037;-82
2021/12/11 13:11:23;;;;;;;9.95;3.97;;;3.10;99.90;;;;;;5077581;28;20123;-82
2021/12/11 13:13:50;;;;;;;8.52;6.43;;;3.10;99.90;;;;;;5080323;28;20048;-77
2021/12/11 13:16:22;;;;;;;11.70;5.80;;;3.10;99.90;;;;;;5070360;28;20047;-78
2021/12/11 13:18:53;;;;;;;9.38;5.30;;;3.10;99.90;;;;;;5064020;28;20086;-80
2021/12/11 13:21:33;;;;;;;9.43;5.53;;;3.10;99.90;;;;;;5076086;28;20041;-81
2021/12/11 13:24:01;;;;;;;7.63;4.47;;;3.20;99.90;;;;;;5077895;28;20144;-80
2021/12/11 13:26:29;;;;;;;11.15;5.63;;;3.10;99.90;;;;;;5075340;28;20382;-80
2021/12/11 13:28:58;;;;;;;7.03;6.32;;;3.10;99.90;;;;;;5073454;28;20661;-81